Cosco China — DCSL2 — position and weather

sailwx.info

Track history (hours):
 
Tides and Currents Weather Stations Pressure Air Temp Water Temp Dewpoint Dewpoint Depression Visibility Wind Speed Wind Dir Waves Ship Positions

Cosco China

Last reported at 2014-Oct-18 19:17 UTC. Time now 2014-Oct-25 06:25 UTC.
Position S 24°27' W 046°10'.

Length 334 m; draft 12.3 m.

Type: Cargo ship. MMSI: 218536000.

Date/timePositionNaut miles runAvg speedWind from/ knotsBaromVisibWave heightAir tempDewpointWater temp
2014-Oct-18 19:17S 24°27' W 046°10'1013.3
2014-Oct-18 18:29S 24°20' W 046°19'1313.8
2014-Oct-18 17:33S 24°08' W 046°23'10 9.9
2014-Oct-18 16:33S 23°59' W 046°17'1 1.4
2014-Oct-18 15:32S 23°58' W 046°18'0 0.0
2014-Oct-18 14:32S 23°58' W 046°18'0 0.0
2014-Oct-18 13:32S 23°58' W 046°18'0 0.0
2014-Oct-18 12:32S 23°58' W 046°18'0 0.0
2014-Oct-18 11:32S 23°58' W 046°18'0 0.0
2014-Oct-18 10:32S 23°58' W 046°18'0 0.0
2014-Oct-18 09:32S 23°58' W 046°18'0 0.0
2014-Oct-18 08:32S 23°58' W 046°18'0 0.0
2014-Oct-18 07:29S 23°58' W 046°18'0 0.0
2014-Oct-18 06:32S 23°58' W 046°18'0 0.0
2014-Oct-18 05:32S 23°58' W 046°18'0 0.0
2014-Oct-18 04:32S 23°58' W 046°18'0 0.0
2014-Oct-18 03:23S 23°58' W 046°18'0 0.0
2014-Oct-18 02:29S 23°58' W 046°18'0 0.0
2014-Oct-18 01:29S 23°58' W 046°18'0 0.0
2014-Oct-18 00:32S 23°58' W 046°18'0 0.0
2014-Oct-17 23:32S 23°58' W 046°18'0 0.0
2014-Oct-17 22:29S 23°58' W 046°18'0 0.0
2014-Oct-17 21:32S 23°58' W 046°18'0 0.0
2014-Oct-17 20:32S 23°58' W 046°18'0 0.0
2014-Oct-17 19:32S 23°58' W 046°18'0 0.0
2014-Oct-17 18:29S 23°58' W 046°18'0 0.0
2014-Oct-17 17:32S 23°58' W 046°18'0 0.0
2014-Oct-17 16:32S 23°58' W 046°18'0 0.0
2014-Oct-17 15:29S 23°58' W 046°18'0 0.0
2014-Oct-17 14:32S 23°58' W 046°18'0 0.0
2014-Oct-17 13:29S 23°58' W 046°18'0 0.0
2014-Oct-17 12:32S 23°58' W 046°18'0 0.0
2014-Oct-17 11:32S 23°58' W 046°18'0 0.0
2014-Oct-17 10:32S 23°58' W 046°18'0 0.0
2014-Oct-17 09:32S 23°58' W 046°18'0 0.0
2014-Oct-17 08:32S 23°58' W 046°18'0 0.0
2014-Oct-17 07:32S 23°58' W 046°18'0 0.0
2014-Oct-17 06:32S 23°58' W 046°18'0 0.0
2014-Oct-17 05:26S 23°58' W 046°18'0 0.0
2014-Oct-17 04:29S 23°58' W 046°18'0 0.0
2014-Oct-17 03:32S 23°58' W 046°18'0 0.0
2014-Oct-17 02:32S 23°58' W 046°18'0 0.0
2014-Oct-17 01:29S 23°58' W 046°18'0 0.0
2014-Oct-17 00:32S 23°58' W 046°18'0 0.0
2014-Oct-16 23:32S 23°58' W 046°18'0 0.0
2014-Oct-16 22:32S 23°58' W 046°18'0 0.0
2014-Oct-16 21:32S 23°58' W 046°18'0 0.0
2014-Oct-16 20:32S 23°58' W 046°18'0 0.0
2014-Oct-16 19:29S 23°58' W 046°18'0 0.0
2014-Oct-16 18:32S 23°58' W 046°18'0 0.0
2014-Oct-16 17:32S 23°58' W 046°18'0 0.0
2014-Oct-16 16:29S 23°58' W 046°18'0 0.0
2014-Oct-16 15:32S 23°58' W 046°18'0 0.0
2014-Oct-16 14:32S 23°58' W 046°18'0 0.0
2014-Oct-16 13:32S 23°58' W 046°18'0 0.0
2014-Oct-16 12:32S 23°58' W 046°18'0 0.0
2014-Oct-16 11:32S 23°58' W 046°18'0 0.0
2014-Oct-16 10:32S 23°58' W 046°18'0 0.0
2014-Oct-16 09:32S 23°58' W 046°18'0 0.0
2014-Oct-16 08:32S 23°58' W 046°18'0 0.0
2014-Oct-16 07:26S 23°58' W 046°18'0 0.0
2014-Oct-16 06:32S 23°58' W 046°18'0 0.0
2014-Oct-16 05:32S 23°58' W 046°18'0 0.0
2014-Oct-16 04:32S 23°58' W 046°18'0 0.0
2014-Oct-16 03:29S 23°58' W 046°18'0 0.0
2014-Oct-16 02:32S 23°58' W 046°18'0 0.0
2014-Oct-16 01:32S 23°58' W 046°18'0 0.0
2014-Oct-16 00:29S 23°58' W 046°18'0 0.0
2014-Oct-15 23:32S 23°58' W 046°18'0 0.0
2014-Oct-15 22:32S 23°58' W 046°18'0 0.0
2014-Oct-15 21:32S 23°58' W 046°18'1 0.7
2014-Oct-15 20:33S 23°58' W 046°17'9 9.4
2014-Oct-15 19:33S 24°07' W 046°22'5 0.5
2014-Oct-15 09:23S 24°11' W 046°19'0 0.0
2014-Oct-15 08:29S 24°11' W 046°19'0 0.0
2014-Oct-15 02:26S 24°11' W 046°19'0 0.0
2014-Oct-15 01:32S 24°11' W 046°19'0 0.0
2014-Oct-14 20:23S 24°11' W 046°19'0 0.1
2014-Oct-14 19:29S 24°11' W 046°19'0 0.1
2014-Oct-14 16:33S 24°11' W 046°19'  
Track history (hours):
 
Tides and Currents Weather Stations Pressure Air Temp Water Temp Dewpoint Dewpoint Depression Visibility Wind Speed Wind Dir Waves Ship Positions

Cosco China

Last reported at 2014-Oct-18 19:17 UTC. Time now 2014-Oct-25 06:25 UTC.
Position S 24°27' W 046°10'.

Length 334 m; draft 12.3 m.

Type: Cargo ship. MMSI: 218536000.

Date/timePositionNaut miles runAvg speedWind from/ knotsBaromVisibWave heightAir tempDewpointWater temp
2014-Oct-18 19:17S 24°27' W 046°10'1013.3
2014-Oct-18 18:29S 24°20' W 046°19'1313.8
2014-Oct-18 17:33S 24°08' W 046°23'10 9.9
2014-Oct-18 16:33S 23°59' W 046°17'1 1.4
2014-Oct-18 15:32S 23°58' W 046°18'0 0.0
2014-Oct-18 14:32S 23°58' W 046°18'0 0.0
2014-Oct-18 13:32S 23°58' W 046°18'0 0.0
2014-Oct-18 12:32S 23°58' W 046°18'0 0.0
2014-Oct-18 11:32S 23°58' W 046°18'0 0.0
2014-Oct-18 10:32S 23°58' W 046°18'0 0.0
2014-Oct-18 09:32S 23°58' W 046°18'0 0.0
2014-Oct-18 08:32S 23°58' W 046°18'0 0.0
2014-Oct-18 07:29S 23°58' W 046°18'0 0.0
2014-Oct-18 06:32S 23°58' W 046°18'0 0.0
2014-Oct-18 05:32S 23°58' W 046°18'0 0.0
2014-Oct-18 04:32S 23°58' W 046°18'0 0.0
2014-Oct-18 03:23S 23°58' W 046°18'0 0.0
2014-Oct-18 02:29S 23°58' W 046°18'0 0.0
2014-Oct-18 01:29S 23°58' W 046°18'0 0.0
2014-Oct-18 00:32S 23°58' W 046°18'0 0.0
2014-Oct-17 23:32S 23°58' W 046°18'0 0.0
2014-Oct-17 22:29S 23°58' W 046°18'0 0.0
2014-Oct-17 21:32S 23°58' W 046°18'0 0.0
2014-Oct-17 20:32S 23°58' W 046°18'0 0.0
2014-Oct-17 19:32S 23°58' W 046°18'0 0.0
2014-Oct-17 18:29S 23°58' W 046°18'0 0.0
2014-Oct-17 17:32S 23°58' W 046°18'0 0.0
2014-Oct-17 16:32S 23°58' W 046°18'0 0.0
2014-Oct-17 15:29S 23°58' W 046°18'0 0.0
2014-Oct-17 14:32S 23°58' W 046°18'0 0.0
2014-Oct-17 13:29S 23°58' W 046°18'0 0.0
2014-Oct-17 12:32S 23°58' W 046°18'0 0.0
2014-Oct-17 11:32S 23°58' W 046°18'0 0.0
2014-Oct-17 10:32S 23°58' W 046°18'0 0.0
2014-Oct-17 09:32S 23°58' W 046°18'0 0.0
2014-Oct-17 08:32S 23°58' W 046°18'0 0.0
2014-Oct-17 07:32S 23°58' W 046°18'0 0.0
2014-Oct-17 06:32S 23°58' W 046°18'0 0.0
2014-Oct-17 05:26S 23°58' W 046°18'0 0.0
2014-Oct-17 04:29S 23°58' W 046°18'0 0.0
2014-Oct-17 03:32S 23°58' W 046°18'0 0.0
2014-Oct-17 02:32S 23°58' W 046°18'0 0.0
2014-Oct-17 01:29S 23°58' W 046°18'0 0.0
2014-Oct-17 00:32S 23°58' W 046°18'0 0.0
2014-Oct-16 23:32S 23°58' W 046°18'0 0.0
2014-Oct-16 22:32S 23°58' W 046°18'0 0.0
2014-Oct-16 21:32S 23°58' W 046°18'0 0.0
2014-Oct-16 20:32S 23°58' W 046°18'0 0.0
2014-Oct-16 19:29S 23°58' W 046°18'0 0.0
2014-Oct-16 18:32S 23°58' W 046°18'0 0.0
2014-Oct-16 17:32S 23°58' W 046°18'0 0.0
2014-Oct-16 16:29S 23°58' W 046°18'0 0.0
2014-Oct-16 15:32S 23°58' W 046°18'0 0.0
2014-Oct-16 14:32S 23°58' W 046°18'0 0.0
2014-Oct-16 13:32S 23°58' W 046°18'0 0.0
2014-Oct-16 12:32S 23°58' W 046°18'0 0.0
2014-Oct-16 11:32S 23°58' W 046°18'0 0.0
2014-Oct-16 10:32S 23°58' W 046°18'0 0.0
2014-Oct-16 09:32S 23°58' W 046°18'0 0.0
2014-Oct-16 08:32S 23°58' W 046°18'0 0.0
2014-Oct-16 07:26S 23°58' W 046°18'0 0.0
2014-Oct-16 06:32S 23°58' W 046°18'0 0.0
2014-Oct-16 05:32S 23°58' W 046°18'0 0.0
2014-Oct-16 04:32S 23°58' W 046°18'0 0.0
2014-Oct-16 03:29S 23°58' W 046°18'0 0.0
2014-Oct-16 02:32S 23°58' W 046°18'0 0.0
2014-Oct-16 01:32S 23°58' W 046°18'0 0.0
2014-Oct-16 00:29S 23°58' W 046°18'0 0.0
2014-Oct-15 23:32S 23°58' W 046°18'0 0.0
2014-Oct-15 22:32S 23°58' W 046°18'0 0.0
2014-Oct-15 21:32S 23°58' W 046°18'1 0.7
2014-Oct-15 20:33S 23°58' W 046°17'9 9.4
2014-Oct-15 19:33S 24°07' W 046°22'5 0.5
2014-Oct-15 09:23S 24°11' W 046°19'0 0.0
2014-Oct-15 08:29S 24°11' W 046°19'0 0.0
2014-Oct-15 02:26S 24°11' W 046°19'0 0.0
2014-Oct-15 01:32S 24°11' W 046°19'0 0.0
2014-Oct-14 20:23S 24°11' W 046°19'0 0.1
2014-Oct-14 19:29S 24°11' W 046°19'0 0.1
2014-Oct-14 16:33S 24°11' W 046°19'  

Dump ship's entire track history